Time;durP1;ratioP1;P1;durP2;ratioP2;P2;SDS_P1;SDS_P2;PMS_P1;PMS_P2;Temp;Humidity;BMP_temperature;BMP_pressure;BME280_temperature;BME280_humidity;BME280_pressure;Samples;Min_cycle;Max_cycle;Signal;HPM_P1;HPM_P2
2021/09/24 00:02:03;;;;;;;8.77;6.00;;;;;;;;;;4957713;28;20214;-75
2021/09/24 00:05:08;;;;;;;6.70;5.63;;;;;;;;;;4951800;28;20184;-75
2021/09/24 00:08:13;;;;;;;7.07;6.10;;;;;;;;;;4957335;29;20195;-74
2021/09/24 00:11:17;;;;;;;7.33;6.13;;;;;;;;;;4957539;28;20214;-75
2021/09/24 00:14:21;;;;;;;9.07;5.57;;;;;;;;;;4957294;29;20211;-75
2021/09/24 00:17:24;;;;;;;6.87;5.93;;;;;;;;;;4956524;29;20647;-75
2021/09/24 00:20:29;;;;;;;8.57;5.10;;;;;;;;;;4957350;28;20180;-74
2021/09/24 00:23:33;;;;;;;8.67;5.17;;;;;;;;;;4956591;29;20623;-75
2021/09/24 00:26:37;;;;;;;6.37;5.40;;;;;;;;;;4957336;29;20184;-74
2021/09/24 00:29:42;;;;;;;7.57;4.87;;;;;;;;;;4956741;29;20183;-75
2021/09/24 00:32:46;;;;;;;7.80;4.67;;;;;;;;;;4957088;29;20179;-75
2021/09/24 00:35:50;;;;;;;5.60;4.97;;;;;;;;;;4956069;29;20183;-74
2021/09/24 00:38:54;;;;;;;5.90;4.90;;;;;;;;;;4956815;29;20184;-75
2021/09/24 00:41:59;;;;;;;6.03;5.27;;;;;;;;;;4956784;28;20563;-74
2021/09/24 00:45:04;;;;;;;6.50;5.10;;;;;;;;;;4967276;28;20188;-75
2021/09/24 00:48:08;;;;;;;8.17;4.77;;;;;;;;;;4957162;29;20184;-75
2021/09/24 00:51:13;;;;;;;7.83;4.93;;;;;;;;;;4955718;28;20223;-75
2021/09/24 00:54:17;;;;;;;5.23;4.60;;;;;;;;;;4956790;29;20211;-75
2021/09/24 00:57:38;;;;;;;6.20;5.13;;;;;;;;;;4956734;29;20180;-75
2021/09/24 01:00:42;;;;;;;6.53;4.67;;;;;;;;;;4956414;28;20218;-74
2021/09/24 01:03:47;;;;;;;5.70;4.80;;;;;;;;;;4955687;29;20203;-75
2021/09/24 01:06:51;;;;;;;7.13;5.30;;;;;;;;;;4955568;28;20628;-74
2021/09/24 01:09:56;;;;;;;7.73;5.17;;;;;;;;;;4955974;29;20187;-74
2021/09/24 01:13:01;;;;;;;6.57;5.03;;;;;;;;;;4956366;29;20188;-74
2021/09/24 01:16:05;;;;;;;7.00;5.53;;;;;;;;;;4955717;29;20179;-75
2021/09/24 01:19:09;;;;;;;7.90;5.37;;;;;;;;;;4955780;29;20187;-74
2021/09/24 01:22:13;;;;;;;6.90;5.33;;;;;;;;;;4955937;28;20218;-74
2021/09/24 01:25:19;;;;;;;6.40;5.10;;;;;;;;;;4956753;29;20180;-75
2021/09/24 01:28:23;;;;;;;5.73;5.00;;;;;;;;;;4956204;29;20180;-75
2021/09/24 01:31:27;;;;;;;8.67;5.23;;;;;;;;;;4955763;28;20227;-75
2021/09/24 01:34:31;;;;;;;7.83;5.37;;;;;;;;;;4955562;29;20687;-75
2021/09/24 01:37:36;;;;;;;6.43;5.40;;;;;;;;;;4955163;29;20207;-74
2021/09/24 01:40:40;;;;;;;7.23;5.13;;;;;;;;;;4955149;28;20227;-74
2021/09/24 01:43:44;;;;;;;8.33;6.03;;;;;;;;;;4955948;29;20183;-74
2021/09/24 01:46:49;;;;;;;8.20;5.87;;;;;;;;;;4955072;29;20207;-75
2021/09/24 01:49:53;;;;;;;9.50;5.77;;;;;;;;;;4955844;29;20527;-74
2021/09/24 01:52:57;;;;;;;8.00;5.30;;;;;;;;;;4955498;29;20524;-74
2021/09/24 01:56:01;;;;;;;7.20;5.80;;;;;;;;;;4955811;29;20635;-75
2021/09/24 01:59:05;;;;;;;7.83;5.90;;;;;;;;;;4955017;29;20191;-74
2021/09/24 02:02:09;;;;;;;7.87;6.10;;;;;;;;;;4955346;28;20555;-75
2021/09/24 02:05:13;;;;;;;7.43;5.97;;;;;;;;;;4954599;29;20195;-74
2021/09/24 02:08:18;;;;;;;8.17;5.80;;;;;;;;;;4955654;29;20184;-74
2021/09/24 02:11:22;;;;;;;7.50;5.77;;;;;;;;;;4954763;28;20214;-75
2021/09/24 02:14:26;;;;;;;6.73;5.93;;;;;;;;;;4955355;29;20563;-75
2021/09/24 02:17:31;;;;;;;7.90;5.93;;;;;;;;;;4955329;29;20516;-75
2021/09/24 02:20:35;;;;;;;9.57;6.43;;;;;;;;;;4965710;28;20619;-75
2021/09/24 02:23:39;;;;;;;11.27;6.33;;;;;;;;;;4955502;29;20180;-74
2021/09/24 02:26:43;;;;;;;9.33;6.47;;;;;;;;;;4955490;29;20209;-75
2021/09/24 02:29:47;;;;;;;7.67;6.20;;;;;;;;;;4954521;29;20187;-74
2021/09/24 02:32:51;;;;;;;9.20;6.50;;;;;;;;;;4955440;29;20184;-75
2021/09/24 02:35:55;;;;;;;10.60;5.67;;;;;;;;;;4954300;29;20183;-74
2021/09/24 02:38:59;;;;;;;9.53;6.40;;;;;;;;;;4955102;29;20654;-75
2021/09/24 02:42:04;;;;;;;7.30;5.80;;;;;;;;;;4955114;28;20227;-74
2021/09/24 02:45:08;;;;;;;7.30;6.30;;;;;;;;;;4955083;29;20539;-75
2021/09/24 02:48:12;;;;;;;7.00;5.77;;;;;;;;;;4954196;29;20662;-75
2021/09/24 02:51:16;;;;;;;7.50;6.27;;;;;;;;;;4954892;28;20219;-74
2021/09/24 02:54:20;;;;;;;7.07;6.03;;;;;;;;;;4954519;29;20212;-75
2021/09/24 02:57:25;;;;;;;10.10;6.53;;;;;;;;;;4955215;29;20179;-74
2021/09/24 03:00:30;;;;;;;7.97;6.60;;;;;;;;;;4954923;28;20184;-74
2021/09/24 03:03:33;;;;;;;8.37;6.30;;;;;;;;;;4954099;29;20203;-75
2021/09/24 03:06:38;;;;;;;7.30;6.47;;;;;;;;;;4954166;29;20632;-74
2021/09/24 03:09:42;;;;;;;7.97;6.50;;;;;;;;;;4955099;29;20183;-74
2021/09/24 03:12:46;;;;;;;9.30;7.17;;;;;;;;;;4955055;29;20184;-74
2021/09/24 03:15:50;;;;;;;9.53;7.30;;;;;;;;;;4954755;29;20176;-74
2021/09/24 03:18:54;;;;;;;10.83;7.10;;;;;;;;;;4954741;29;20187;-74
2021/09/24 03:21:58;;;;;;;8.27;6.63;;;;;;;;;;4954815;28;20227;-74
2021/09/24 03:25:03;;;;;;;8.57;7.53;;;;;;;;;;4954992;29;20180;-74
2021/09/24 03:28:10;;;;;;;8.97;7.30;;;;;;;;;;4943810;28;20192;-74
2021/09/24 03:31:15;;;;;;;9.00;7.20;;;;;;;;;;4939012;29;20216;-74
2021/09/24 03:34:19;;;;;;;11.30;7.90;;;;;;;;;;4938370;29;20207;-74
2021/09/24 03:37:23;;;;;;;9.30;7.33;;;;;;;;;;4939030;29;20537;-74
2021/09/24 03:40:27;;;;;;;9.57;7.27;;;;;;;;;;4938805;29;20627;-74
2021/09/24 03:43:31;;;;;;;9.90;7.77;;;;;;;;;;4944755;29;20643;-73
2021/09/24 03:46:36;;;;;;;11.13;7.50;;;;;;;;;;4938612;29;20671;-74
2021/09/24 03:49:40;;;;;;;9.80;7.40;;;;;;;;;;4937750;29;20548;-74
2021/09/24 03:52:44;;;;;;;9.40;7.40;;;;;;;;;;4937763;29;20192;-74
2021/09/24 03:55:52;;;;;;;11.77;7.37;;;;;;;;;;4937630;29;20212;-74
2021/09/24 03:58:56;;;;;;;10.20;7.27;;;;;;;;;;4938716;29;20184;-74
2021/09/24 04:02:00;;;;;;;9.80;7.47;;;;;;;;;;4938003;29;20223;-74
2021/09/24 04:05:06;;;;;;;9.87;7.30;;;;;;;;;;4938836;29;20180;-74
2021/09/24 04:08:09;;;;;;;8.50;6.83;;;;;;;;;;4938221;29;20184;-74
2021/09/24 04:11:13;;;;;;;10.67;7.50;;;;;;;;;;4938593;29;20215;-74
2021/09/24 04:14:18;;;;;;;10.47;7.17;;;;;;;;;;4938550;29;20215;-74
2021/09/24 04:17:22;;;;;;;10.77;7.57;;;;;;;;;;4937542;29;20188;-74
2021/09/24 04:20:26;;;;;;;10.87;7.07;;;;;;;;;;4937434;29;20188;-74
2021/09/24 04:23:30;;;;;;;10.07;7.07;;;;;;;;;;4937687;29;20196;-74
2021/09/24 04:26:34;;;;;;;8.40;6.87;;;;;;;;;;4937166;29;20184;-74
2021/09/24 04:29:38;;;;;;;8.30;6.87;;;;;;;;;;4938183;29;20192;-73
2021/09/24 04:32:43;;;;;;;13.43;7.93;;;;;;;;;;4936989;29;20200;-74
2021/09/24 04:35:47;;;;;;;9.70;6.70;;;;;;;;;;4937677;29;20671;-74
2021/09/24 04:38:51;;;;;;;9.40;7.40;;;;;;;;;;4937904;29;20514;-74
2021/09/24 04:41:56;;;;;;;9.20;7.27;;;;;;;;;;4938067;29;20228;-74
2021/09/24 04:45:01;;;;;;;8.60;6.53;;;;;;;;;;4937111;29;20517;-74
2021/09/24 04:48:05;;;;;;;8.20;7.27;;;;;;;;;;4936990;29;20184;-74
2021/09/24 04:51:09;;;;;;;8.70;6.53;;;;;;;;;;4937927;29;20715;-74
2021/09/24 04:54:13;;;;;;;8.50;6.80;;;;;;;;;;4937869;29;20216;-74
2021/09/24 04:57:17;;;;;;;8.93;7.47;;;;;;;;;;4937577;29;20185;-74
2021/09/24 05:00:22;;;;;;;11.57;6.40;;;;;;;;;;4936558;29;20188;-73
2021/09/24 05:03:26;;;;;;;14.67;7.00;;;;;;;;;;4937180;29;20212;-73
2021/09/24 05:06:30;;;;;;;9.90;6.73;;;;;;;;;;4925716;29;20180;-74
2021/09/24 05:09:34;;;;;;;11.07;7.57;;;;;;;;;;4937687;29;20188;-74
2021/09/24 05:12:38;;;;;;;9.87;7.20;;;;;;;;;;4936754;29;20228;-74
2021/09/24 05:15:42;;;;;;;11.33;7.53;;;;;;;;;;4937096;29;20211;-74
2021/09/24 05:18:46;;;;;;;11.37;7.47;;;;;;;;;;4937203;29;20192;-74
2021/09/24 05:21:50;;;;;;;8.53;7.20;;;;;;;;;;4936943;29;20216;-74
2021/09/24 05:24:55;;;;;;;9.77;6.57;;;;;;;;;;4937649;29;20180;-74
2021/09/24 05:27:59;;;;;;;12.67;7.43;;;;;;;;;;4936031;29;20184;-74
2021/09/24 05:31:03;;;;;;;8.67;7.07;;;;;;;;;;4936789;29;20211;-74
2021/09/24 05:34:07;;;;;;;14.27;7.10;;;;;;;;;;4936859;29;20180;-74
2021/09/24 05:37:11;;;;;;;15.43;7.43;;;;;;;;;;4936953;29;20188;-74
2021/09/24 05:40:16;;;;;;;16.97;9.07;;;;;;;;;;4925181;29;20185;-74
2021/09/24 05:43:20;;;;;;;11.77;7.17;;;;;;;;;;4936780;29;20524;-74
2021/09/24 05:46:24;;;;;;;11.63;7.47;;;;;;;;;;4936009;29;20521;-74
2021/09/24 05:49:30;;;;;;;13.07;10.00;;;;;;;;;;4936192;29;20187;-74
2021/09/24 05:52:34;;;;;;;15.80;9.53;;;;;;;;;;4935964;29;20254;-74
2021/09/24 05:55:39;;;;;;;9.17;7.10;;;;;;;;;;4935899;29;20537;-74
2021/09/24 05:58:43;;;;;;;12.20;6.33;;;;;;;;;;4935749;29;20188;-74
2021/09/24 06:01:48;;;;;;;9.13;7.27;;;;;;;;;;4935724;29;20556;-74
2021/09/24 06:04:52;;;;;;;9.43;7.40;;;;;;;;;;4935742;29;20208;-74
2021/09/24 06:07:56;;;;;;;11.57;8.47;;;;;;;;;;4931332;29;20196;-73
2021/09/24 06:11:00;;;;;;;12.77;10.83;;;;;;;;;;4932568;29;20235;-73
2021/09/24 06:14:05;;;;;;;11.37;9.20;;;;;;;;;;4932587;29;20195;-73
2021/09/24 06:17:11;;;;;;;10.67;8.23;;;;;;;;;;4932416;29;20684;-73
2021/09/24 06:20:17;;;;;;;10.03;7.03;;;;;;;;;;4931433;29;20192;-73
2021/09/24 06:23:21;;;;;;;9.53;7.43;;;;;;;;;;4934566;29;20187;-74
2021/09/24 06:26:25;;;;;;;8.77;7.67;;;;;;;;;;4935575;29;20620;-74
2021/09/24 06:29:29;;;;;;;10.00;7.40;;;;;;;;;;4936576;29;20631;-74
2021/09/24 06:32:34;;;;;;;11.27;7.33;;;;;;;;;;4935123;29;20224;-74
2021/09/24 06:35:38;;;;;;;10.10;5.93;;;;;;;;;;4924402;29;20204;-74
2021/09/24 06:38:42;;;;;;;7.23;6.23;;;;;;;;;;4936224;29;20188;-73
2021/09/24 06:41:47;;;;;;;8.10;6.23;;;;;;;;;;4936160;29;20223;-74
2021/09/24 06:44:51;;;;;;;6.37;5.63;;;;;;;;;;4935923;29;20628;-74
2021/09/24 06:47:55;;;;;;;6.83;5.73;;;;;;;;;;4936291;29;20195;-74
2021/09/24 06:50:59;;;;;;;5.30;4.30;;;;;;;;;;4936058;29;20215;-74
2021/09/24 06:54:04;;;;;;;6.57;4.80;;;;;;;;;;4936062;29;20204;-74
2021/09/24 06:57:08;;;;;;;23.20;5.73;;;;;;;;;;4936030;29;20192;-74
2021/09/24 07:00:12;;;;;;;11.07;5.20;;;;;;;;;;4935763;29;20200;-74
2021/09/24 07:03:17;;;;;;;9.33;4.97;;;;;;;;;;4936036;28;20679;-74
2021/09/24 07:06:21;;;;;;;6.67;5.33;;;;;;;;;;4940044;29;20181;-74
2021/09/24 07:09:25;;;;;;;7.20;4.57;;;;;;;;;;4939605;29;20636;-74
2021/09/24 07:12:30;;;;;;;8.20;4.47;;;;;;;;;;4939216;29;20216;-74
2021/09/24 07:15:34;;;;;;;7.40;4.40;;;;;;;;;;4938324;29;20212;-74
2021/09/24 07:18:38;;;;;;;5.73;4.57;;;;;;;;;;4939136;29;20180;-74
2021/09/24 07:21:42;;;;;;;7.10;5.00;;;;;;;;;;4939167;29;20219;-74
2021/09/24 07:24:49;;;;;;;41.27;6.07;;;;;;;;;;4939614;29;20185;-74
2021/09/24 07:27:53;;;;;;;8.57;4.23;;;;;;;;;;4938986;29;20204;-73
2021/09/24 07:30:57;;;;;;;4.97;4.07;;;;;;;;;;4938989;29;20219;-74
2021/09/24 07:34:02;;;;;;;8.77;4.57;;;;;;;;;;4938636;29;20185;-74
2021/09/24 07:37:06;;;;;;;5.10;4.07;;;;;;;;;;4939346;29;20509;-74
2021/09/24 07:40:11;;;;;;;8.93;7.17;;;;;;;;;;4939345;29;20524;-74
2021/09/24 07:43:15;;;;;;;8.03;6.20;;;;;;;;;;4939020;29;20180;-74
2021/09/24 07:46:21;;;;;;;13.87;12.57;;;;;;;;;;4938688;29;20628;-74
2021/09/24 07:49:25;;;;;;;8.13;6.30;;;;;;;;;;4939135;29;20544;-74
2021/09/24 07:52:31;;;;;;;6.90;4.93;;;;;;;;;;4938828;29;20211;-74
2021/09/24 07:55:35;;;;;;;9.23;4.60;;;;;;;;;;4938948;29;20208;-74
2021/09/24 07:58:39;;;;;;;5.47;3.90;;;;;;;;;;4938720;29;20180;-74
2021/09/24 08:01:44;;;;;;;6.27;3.80;;;;;;;;;;4938356;29;20224;-73
2021/09/24 08:04:47;;;;;;;9.63;4.23;;;;;;;;;;4938251;29;20216;-74
2021/09/24 08:07:52;;;;;;;5.37;3.83;;;;;;;;;;4938486;29;20204;-74
2021/09/24 08:10:56;;;;;;;6.63;3.90;;;;;;;;;;4938613;29;20220;-74
2021/09/24 08:14:00;;;;;;;4.50;3.90;;;;;;;;;;4937364;29;20208;-73
2021/09/24 08:17:04;;;;;;;8.90;4.37;;;;;;;;;;4938363;29;20234;-74
2021/09/24 08:20:10;;;;;;;27.20;4.87;;;;;;;;;;4938569;29;20184;-73
2021/09/24 08:23:14;;;;;;;5.97;4.20;;;;;;;;;;4937478;29;20189;-74
2021/09/24 08:26:20;;;;;;;6.23;4.23;;;;;;;;;;4937447;29;20184;-74
2021/09/24 08:29:24;;;;;;;7.00;4.13;;;;;;;;;;4937325;29;20204;-74
2021/09/24 08:32:30;;;;;;;9.73;4.50;;;;;;;;;;4937019;29;20215;-73
2021/09/24 08:35:34;;;;;;;9.30;4.20;;;;;;;;;;4938219;29;20212;-73
2021/09/24 08:38:39;;;;;;;5.43;4.23;;;;;;;;;;4937718;29;20192;-73
2021/09/24 08:41:44;;;;;;;9.00;4.37;;;;;;;;;;4937889;29;20215;-74
2021/09/24 08:44:49;;;;;;;8.03;4.43;;;;;;;;;;4937849;29;20517;-74
2021/09/24 08:48:14;;;;;;;6.57;4.07;;;;;;;;;;4937515;29;20196;-74
2021/09/24 08:51:18;;;;;;;9.10;3.67;;;;;;;;;;4936834;29;20719;-74
2021/09/24 08:54:22;;;;;;;4.47;3.37;;;;;;;;;;4937394;29;20200;-74
2021/09/24 08:57:26;;;;;;;5.13;3.73;;;;;;;;;;4937562;29;20211;-74
2021/09/24 09:00:32;;;;;;;6.27;3.30;;;;;;;;;;4937333;29;20180;-74
2021/09/24 09:03:46;;;;;;;8.00;3.70;;;;;;;;;;4937382;29;20211;-73
2021/09/24 09:07:02;;;;;;;4.60;3.50;;;;;;;;;;5022502;23;20607;-76
2021/09/24 09:10:07;;;;;;;6.73;3.30;;;;;;;;;;5034637;28;20188;-76
2021/09/24 09:13:13;;;;;;;5.70;3.67;;;;;;;;;;5015161;28;20181;-76
2021/09/24 09:16:28;;;;;;;13.70;4.03;;;;;;;;;;5014533;28;20549;-76
2021/09/24 09:19:37;;;;;;;4.27;2.87;;;;;;;;;;5014744;28;20177;-76
2021/09/24 09:22:43;;;;;;;4.70;3.00;;;;;;;;;;5014341;28;20213;-76
2021/09/24 09:25:49;;;;;;;4.67;3.07;;;;;;;;;;5013931;28;20174;-76
2021/09/24 09:28:57;;;;;;;5.20;3.13;;;;;;;;;;5013501;28;20186;-76
2021/09/24 09:32:01;;;;;;;4.43;2.60;;;;;;;;;;5014219;28;20213;-76
2021/09/24 09:35:07;;;;;;;5.63;2.67;;;;;;;;;;5013591;28;20201;-77
2021/09/24 09:38:31;;;;;;;6.10;5.30;;;;;;;;;;5014192;28;20175;-76
2021/09/24 09:41:36;;;;;;;4.83;2.90;;;;;;;;;;5013836;28;20223;-76
2021/09/24 09:44:41;;;;;;;5.47;2.70;;;;;;;;;;5013530;28;20188;-76
2021/09/24 09:47:48;;;;;;;4.07;2.43;;;;;;;;;;5014071;28;20183;-76
2021/09/24 09:50:52;;;;;;;3.37;2.37;;;;;;;;;;5013071;28;20222;-76
2021/09/24 09:53:56;;;;;;;9.70;2.40;;;;;;;;;;5013177;28;20644;-76
2021/09/24 09:57:14;;;;;;;5.33;2.30;;;;;;;;;;5013461;28;20212;-76
2021/09/24 10:00:18;;;;;;;4.80;2.30;;;;;;;;;;5001920;28;20181;-76
2021/09/24 10:03:31;;;;;;;2.78;1.95;;;;;;;;;;5002033;28;20189;-76
2021/09/24 10:06:40;;;;;;;10.02;2.38;;;;;;;;;;5012991;28;20196;-76
2021/09/24 10:09:47;;;;;;;4.90;1.60;;;;;;;;;;5002233;28;20198;-76
2021/09/24 10:12:52;;;;;;;4.13;2.30;;;;;;;;;;5014255;28;20180;-76
2021/09/24 10:15:57;;;;;;;4.03;2.25;;;;;;;;;;5001729;28;20208;-76
2021/09/24 10:19:01;;;;;;;3.42;1.80;;;;;;;;;;5013142;28;20185;-76
2021/09/24 10:22:06;;;;;;;5.07;1.70;;;;;;;;;;5013757;28;20703;-77
2021/09/24 10:25:10;;;;;;;13.20;2.10;;;;;;;;;;5015115;28;20664;-77
2021/09/24 10:28:15;;;;;;;3.60;1.60;;;;;;;;;;5015421;28;20175;-77
2021/09/24 10:31:19;;;;;;;1.48;1.08;;;;;;;;;;5014878;28;20216;-77
2021/09/24 10:34:28;;;;;;;3.42;1.40;;;;;;;;;;5015972;28;20194;-77
2021/09/24 10:37:36;;;;;;;11.18;1.80;;;;;;;;;;5015677;28;20210;-77
2021/09/24 10:41:02;;;;;;;2.67;1.50;;;;;;;;;;5020126;28;20218;-77
2021/09/24 10:44:06;;;;;;;3.58;1.38;;;;;;;;;;5007679;28;20181;-77
2021/09/24 10:47:10;;;;;;;1.88;1.30;;;;;;;;;;5020373;28;20185;-78
2021/09/24 10:50:30;;;;;;;2.78;1.50;;;;;;;;;;5006238;28;20189;-76
2021/09/24 10:53:33;;;;;;;4.10;1.77;;;;;;;;;;5007758;28;20184;-77
2021/09/24 10:56:38;;;;;;;1.20;1.00;;;;;;;;;;5017520;28;20674;-76
2021/09/24 10:59:42;;;;;;;5.15;1.40;;;;;;;;;;5017755;28;20176;-76
2021/09/24 11:02:46;;;;;;;4.88;1.75;;;;;;;;;;5016368;28;20197;-76
2021/09/24 11:06:05;;;;;;;2.33;1.70;;;;;;;;;;5014148;28;20211;-76
2021/09/24 11:09:13;;;;;;;7.47;1.90;;;;;;;;;;5014440;28;20183;-77
2021/09/24 11:12:17;;;;;;;6.97;1.90;;;;;;;;;;5015902;28;20521;-77
2021/09/24 11:15:22;;;;;;;3.03;1.93;;;;;;;;;;5014634;28;20579;-77
2021/09/24 11:18:48;;;;;;;2.43;2.00;;;;;;;;;;5016372;28;20183;-77
2021/09/24 11:21:58;;;;;;;12.33;2.70;;;;;;;;;;5015242;28;20224;-77
2021/09/24 11:25:07;;;;;;;3.43;2.20;;;;;;;;;;5014502;28;20188;-76
2021/09/24 11:28:32;;;;;;;4.67;2.20;;;;;;;;;;5014729;28;20191;-77
2021/09/24 11:31:55;;;;;;;8.77;2.60;;;;;;;;;;5013413;28;20225;-77
2021/09/24 11:35:00;;;;;;;2.87;1.97;;;;;;;;;;5014295;28;20183;-76
2021/09/24 11:38:16;;;;;;;3.67;2.13;;;;;;;;;;5013817;28;20696;-76
2021/09/24 11:41:21;;;;;;;2.40;2.07;;;;;;;;;;5019817;28;20225;-77
2021/09/24 11:44:25;;;;;;;4.07;2.33;;;;;;;;;;5018153;28;20178;-76
2021/09/24 11:47:36;;;;;;;9.47;3.27;;;;;;;;;;5015855;28;20630;-76
2021/09/24 11:50:40;;;;;;;2.67;1.80;;;;;;;;;;5003938;28;20213;-76
2021/09/24 11:53:52;;;;;;;5.13;2.20;;;;;;;;;;5015950;28;20175;-76
2021/09/24 11:56:55;;;;;;;4.73;2.17;;;;;;;;;;5004724;28;20215;-77
2021/09/24 12:00:00;;;;;;;3.17;1.93;;;;;;;;;;5016677;28;20188;-77
2021/09/24 12:03:20;;;;;;;5.13;1.77;;;;;;;;;;5015594;28;20191;-76
2021/09/24 12:06:27;;;;;;;7.67;2.00;;;;;;;;;;5015263;28;20692;-76
2021/09/24 12:09:37;;;;;;;2.50;1.80;;;;;;;;;;5015435;28;20183;-76
2021/09/24 12:12:44;;;;;;;17.83;2.90;;;;;;;;;;5015380;28;20215;-76
2021/09/24 12:15:55;;;;;;;6.30;2.13;;;;;;;;;;5014998;28;20183;-76
2021/09/24 12:19:09;;;;;;;4.13;1.90;;;;;;;;;;5016164;28;20176;-76
2021/09/24 12:22:14;;;;;;;2.75;1.67;;;;;;;;;;5015243;28;20210;-76
2021/09/24 12:25:19;;;;;;;9.50;2.40;;;;;;;;;;5015635;28;20194;-76
2021/09/24 12:28:23;;;;;;;2.10;1.77;;;;;;;;;;5015991;28;20185;-75
2021/09/24 12:31:37;;;;;;;4.82;1.80;;;;;;;;;;5015459;28;20221;-76
2021/09/24 12:34:51;;;;;;;3.58;1.80;;;;;;;;;;5015367;28;20689;-75
2021/09/24 12:37:55;;;;;;;5.20;1.60;;;;;;;;;;5015041;28;20215;-75
2021/09/24 12:41:12;;;;;;;2.03;1.60;;;;;;;;;;5015941;28;20572;-75
2021/09/24 12:44:17;;;;;;;22.75;2.92;;;;;;;;;;5014571;28;20192;-75
2021/09/24 12:47:24;;;;;;;22.45;2.50;;;;;;;;;;5018174;28;20198;-74
2021/09/24 12:50:28;;;;;;;14.82;2.30;;;;;;;;;;5003193;28;20660;-74
2021/09/24 12:53:34;;;;;;;2.92;1.55;;;;;;;;;;5016576;28;20182;-75
2021/09/24 12:56:40;;;;;;;8.68;1.90;;;;;;;;;;5014656;28;20215;-75
2021/09/24 12:59:49;;;;;;;5.38;1.50;;;;;;;;;;5014896;28;20212;-75
2021/09/24 13:02:53;;;;;;;3.70;1.67;;;;;;;;;;5015147;28;20186;-76
2021/09/24 13:05:59;;;;;;;6.28;1.92;;;;;;;;;;5014764;28;20209;-75
2021/09/24 13:09:03;;;;;;;1.88;1.75;;;;;;;;;;5015566;28;20521;-75
2021/09/24 13:12:07;;;;;;;2.63;2.13;;;;;;;;;;5016891;28;20219;-77
2021/09/24 13:15:16;;;;;;;2.50;1.77;;;;;;;;;;5016194;28;20208;-76
2021/09/24 13:18:24;;;;;;;4.40;1.60;;;;;;;;;;5005678;28;20212;-76
2021/09/24 13:21:33;;;;;;;6.03;2.00;;;;;;;;;;5003785;28;20223;-77
2021/09/24 13:24:37;;;;;;;3.63;1.70;;;;;;;;;;5004180;28;20176;-77
2021/09/24 13:27:41;;;;;;;3.05;2.17;;;;;;;;;;5016150;28;20179;-76
2021/09/24 13:30:45;;;;;;;70.03;5.20;;;;;;;;;;5002658;28;20220;-76
2021/09/24 13:33:50;;;;;;;2.25;1.95;;;;;;;;;;5013736;28;20193;-76
2021/09/24 13:36:54;;;;;;;4.65;1.95;;;;;;;;;;5015294;28;20204;-76
2021/09/24 13:39:58;;;;;;;7.15;2.15;;;;;;;;;;5014884;28;20617;-75
2021/09/24 13:43:03;;;;;;;2.30;2.10;;;;;;;;;;5002516;28;20185;-76
2021/09/24 13:46:07;;;;;;;5.07;1.88;;;;;;;;;;5013772;28;20191;-76
2021/09/24 13:49:12;;;;;;;1.92;1.73;;;;;;;;;;5014704;28;20633;-75
2021/09/24 13:52:16;;;;;;;5.78;2.47;;;;;;;;;;5002175;28;20218;-75
2021/09/24 13:55:21;;;;;;;12.32;2.47;;;;;;;;;;5013529;28;20183;-76
2021/09/24 13:58:25;;;;;;;2.93;2.17;;;;;;;;;;5013384;28;20210;-75
2021/09/24 14:01:30;;;;;;;4.60;2.58;;;;;;;;;;5002065;28;20221;-75
2021/09/24 14:04:34;;;;;;;10.77;2.33;;;;;;;;;;5013933;28;20182;-75
2021/09/24 14:07:39;;;;;;;4.57;1.77;;;;;;;;;;5013293;28;20628;-76
2021/09/24 14:10:43;;;;;;;6.47;2.30;;;;;;;;;;5014808;28;20214;-76
2021/09/24 14:13:47;;;;;;;4.87;2.70;;;;;;;;;;5013859;28;20188;-76
2021/09/24 14:16:51;;;;;;;15.67;2.53;;;;;;;;;;5014014;28;20186;-76
2021/09/24 14:19:56;;;;;;;4.07;2.10;;;;;;;;;;5013599;28;20203;-76
2021/09/24 14:23:00;;;;;;;26.33;3.30;;;;;;;;;;5013663;28;20202;-76
2021/09/24 14:26:04;;;;;;;7.27;2.33;;;;;;;;;;5013931;28;20207;-76
2021/09/24 14:29:08;;;;;;;3.07;2.30;;;;;;;;;;5013893;28;20184;-76
2021/09/24 14:32:12;;;;;;;2.40;2.17;;;;;;;;;;5012631;28;20213;-76
2021/09/24 14:35:17;;;;;;;3.20;2.60;;;;;;;;;;5013209;28;20205;-76
2021/09/24 14:38:21;;;;;;;3.73;2.30;;;;;;;;;;5013765;28;20210;-76
2021/09/24 14:41:26;;;;;;;4.83;2.70;;;;;;;;;;5013659;28;20231;-76
2021/09/24 14:44:30;;;;;;;3.47;2.30;;;;;;;;;;5013836;28;20181;-76
2021/09/24 14:47:34;;;;;;;10.53;2.97;;;;;;;;;;5012750;28;20173;-76
2021/09/24 14:50:38;;;;;;;10.07;3.00;;;;;;;;;;5013027;28;20217;-76
2021/09/24 14:53:43;;;;;;;5.57;2.47;;;;;;;;;;5013475;28;20182;-76
2021/09/24 14:56:46;;;;;;;71.50;6.57;;;;;;;;;;5013559;28;20218;-76
2021/09/24 14:59:51;;;;;;;29.70;3.93;;;;;;;;;;5013497;28;20186;-76
2021/09/24 15:02:55;;;;;;;5.03;2.47;;;;;;;;;;5013813;28;20185;-75
2021/09/24 15:05:59;;;;;;;26.20;3.93;;;;;;;;;;5024649;23;20206;-73
2021/09/24 15:09:03;;;;;;;3.83;2.80;;;;;;;;;;4994004;28;20192;-72
2021/09/24 15:12:07;;;;;;;3.10;2.80;;;;;;;;;;4993659;28;20218;-73
2021/09/24 15:15:11;;;;;;;5.37;3.00;;;;;;;;;;4993880;28;20187;-72
2021/09/24 15:18:18;;;;;;;3.10;2.80;;;;;;;;;;4993326;28;20202;-73
2021/09/24 15:21:22;;;;;;;13.40;3.03;;;;;;;;;;4992998;28;20569;-73
2021/09/24 15:24:27;;;;;;;5.60;2.77;;;;;;;;;;4993290;28;20511;-73
2021/09/24 15:27:31;;;;;;;3.10;2.80;;;;;;;;;;4997301;28;20186;-73
2021/09/24 15:30:35;;;;;;;4.13;2.87;;;;;;;;;;4996999;28;20187;-72
2021/09/24 15:33:39;;;;;;;5.60;2.60;;;;;;;;;;4997197;28;20183;-73
2021/09/24 15:36:43;;;;;;;6.10;3.30;;;;;;;;;;4996989;28;20186;-73
2021/09/24 15:39:47;;;;;;;5.33;3.10;;;;;;;;;;4997348;28;20166;-73
2021/09/24 15:42:51;;;;;;;5.40;3.10;;;;;;;;;;4997033;28;20186;-73
2021/09/24 15:45:56;;;;;;;3.63;3.00;;;;;;;;;;4996745;28;20182;-73
2021/09/24 15:49:01;;;;;;;4.10;2.67;;;;;;;;;;4996761;28;20194;-73
2021/09/24 15:52:06;;;;;;;18.17;3.47;;;;;;;;;;4996626;28;20696;-74
2021/09/24 15:55:10;;;;;;;3.30;3.00;;;;;;;;;;4996808;28;20182;-73
2021/09/24 15:58:14;;;;;;;6.17;3.30;;;;;;;;;;4996568;28;20202;-74
2021/09/24 16:01:20;;;;;;;3.93;3.00;;;;;;;;;;4996183;28;20217;-74
2021/09/24 16:04:24;;;;;;;3.07;2.77;;;;;;;;;;4996700;28;20530;-74
2021/09/24 16:07:28;;;;;;;4.47;3.20;;;;;;;;;;4996413;28;20201;-74
2021/09/24 16:10:32;;;;;;;3.47;2.60;;;;;;;;;;4995941;28;20190;-72
2021/09/24 16:13:36;;;;;;;5.50;2.70;;;;;;;;;;4995627;28;20178;-73
2021/09/24 16:16:40;;;;;;;3.57;2.90;;;;;;;;;;4996164;28;20190;-74
2021/09/24 16:19:44;;;;;;;4.30;2.97;;;;;;;;;;4995246;28;20190;-73
2021/09/24 16:22:48;;;;;;;7.07;3.03;;;;;;;;;;4995472;28;20186;-73
2021/09/24 16:25:52;;;;;;;7.63;3.33;;;;;;;;;;4995984;28;20190;-74
2021/09/24 16:28:59;;;;;;;8.00;3.17;;;;;;;;;;4995360;28;20186;-74
2021/09/24 16:32:03;;;;;;;11.47;3.40;;;;;;;;;;4996120;28;20558;-74
2021/09/24 16:35:12;;;;;;;7.70;3.30;;;;;;;;;;4995803;28;20186;-73
2021/09/24 16:38:16;;;;;;;6.83;3.30;;;;;;;;;;4995884;28;20206;-74
2021/09/24 16:41:20;;;;;;;62.77;5.43;;;;;;;;;;4995786;28;20221;-73
2021/09/24 16:44:24;;;;;;;39.83;4.77;;;;;;;;;;4996148;28;20202;-73
2021/09/24 16:47:28;;;;;;;15.93;3.93;;;;;;;;;;4995758;28;20197;-74
2021/09/24 16:50:33;;;;;;;8.43;3.33;;;;;;;;;;4995697;28;20187;-73
2021/09/24 16:53:37;;;;;;;12.00;3.67;;;;;;;;;;4995385;28;20206;-74
2021/09/24 16:56:41;;;;;;;6.43;3.50;;;;;;;;;;4993962;28;20202;-72
2021/09/24 16:59:45;;;;;;;3.90;3.13;;;;;;;;;;4990588;28;20205;-72
2021/09/24 17:02:50;;;;;;;3.77;3.03;;;;;;;;;;4991664;28;20507;-72
2021/09/24 17:05:54;;;;;;;4.83;3.70;;;;;;;;;;4991357;28;20186;-73
2021/09/24 17:08:58;;;;;;;73.87;6.50;;;;;;;;;;4991127;28;20645;-73
2021/09/24 17:12:02;;;;;;;10.20;4.27;;;;;;;;;;4979602;28;20225;-73
2021/09/24 17:15:08;;;;;;;3.90;3.20;;;;;;;;;;4979397;28;20186;-73
2021/09/24 17:18:11;;;;;;;7.87;4.30;;;;;;;;;;4990345;28;20221;-73
2021/09/24 17:21:15;;;;;;;6.10;3.63;;;;;;;;;;4990752;28;20569;-73
2021/09/24 17:24:20;;;;;;;4.53;3.70;;;;;;;;;;4991146;28;20190;-72
2021/09/24 17:27:24;;;;;;;5.50;3.53;;;;;;;;;;4990412;28;20189;-72
2021/09/24 17:30:28;;;;;;;7.67;3.97;;;;;;;;;;4990249;28;20633;-72
2021/09/24 17:33:32;;;;;;;4.33;3.93;;;;;;;;;;4990613;28;20522;-72
2021/09/24 17:36:37;;;;;;;6.13;4.40;;;;;;;;;;4990876;28;20190;-72
2021/09/24 17:39:41;;;;;;;4.37;3.70;;;;;;;;;;4989921;28;20236;-72
2021/09/24 17:42:48;;;;;;;7.80;4.83;;;;;;;;;;4990053;28;20186;-73
2021/09/24 17:45:52;;;;;;;5.43;4.47;;;;;;;;;;4990438;28;20190;-72
2021/09/24 17:48:56;;;;;;;6.57;4.20;;;;;;;;;;4990110;28;20206;-72
2021/09/24 17:52:01;;;;;;;6.83;4.30;;;;;;;;;;4990708;28;20221;-72
2021/09/24 17:55:08;;;;;;;5.70;3.97;;;;;;;;;;4990632;28;20198;-72
2021/09/24 17:58:12;;;;;;;8.10;3.90;;;;;;;;;;4989354;28;20206;-72
2021/09/24 18:01:16;;;;;;;5.97;4.00;;;;;;;;;;4990586;28;20222;-72
2021/09/24 18:04:21;;;;;;;7.67;3.77;;;;;;;;;;4990563;28;20545;-72
2021/09/24 18:07:26;;;;;;;4.73;3.60;;;;;;;;;;4989302;28;20227;-72
2021/09/24 18:10:32;;;;;;;6.53;3.90;;;;;;;;;;4990077;28;20182;-73
2021/09/24 18:13:36;;;;;;;4.13;3.73;;;;;;;;;;4990395;28;20178;-73
2021/09/24 18:16:41;;;;;;;5.07;3.90;;;;;;;;;;4990409;28;20186;-73
2021/09/24 18:19:44;;;;;;;4.67;3.77;;;;;;;;;;4990156;28;20214;-73
2021/09/24 18:22:51;;;;;;;5.23;3.93;;;;;;;;;;4990003;28;20178;-74
2021/09/24 18:25:55;;;;;;;7.00;3.73;;;;;;;;;;4989294;28;20198;-74
2021/09/24 18:28:59;;;;;;;4.87;4.27;;;;;;;;;;4978358;28;20178;-73